sensor_id;sensor_type;location;lat;lon;timestamp;P1;durP1;ratioP1;P2;durP2;ratioP2
51010;SDS011;37038;50.182;8.624;2023-07-08T00:00:09;9.02;;;6.30;;
51010;SDS011;37038;50.182;8.624;2023-07-08T00:02:59;7.93;;;6.45;;
51010;SDS011;37038;50.182;8.624;2023-07-08T00:05:55;8.57;;;6.40;;
51010;SDS011;37038;50.182;8.624;2023-07-08T00:08:45;9.68;;;7.63;;
51010;SDS011;37038;50.182;8.624;2023-07-08T00:11:33;8.88;;;6.78;;
51010;SDS011;37038;50.182;8.624;2023-07-08T00:14:21;10.48;;;6.80;;
51010;SDS011;37038;50.182;8.624;2023-07-08T00:17:11;8.68;;;6.57;;
51010;SDS011;37038;50.182;8.624;2023-07-08T00:20:09;8.87;;;7.07;;
51010;SDS011;37038;50.182;8.624;2023-07-08T00:22:58;9.63;;;7.15;;
51010;SDS011;37038;50.182;8.624;2023-07-08T00:25:48;9.43;;;6.30;;
51010;SDS011;37038;50.182;8.624;2023-07-08T00:28:36;8.32;;;6.45;;
51010;SDS011;37038;50.182;8.624;2023-07-08T00:31:23;8.00;;;6.78;;
51010;SDS011;37038;50.182;8.624;2023-07-08T00:34:13;10.35;;;6.32;;
51010;SDS011;37038;50.182;8.624;2023-07-08T00:37:02;8.25;;;6.45;;
51010;SDS011;37038;50.182;8.624;2023-07-08T00:39:52;7.93;;;6.43;;
51010;SDS011;37038;50.182;8.624;2023-07-08T00:42:40;8.50;;;6.85;;
51010;SDS011;37038;50.182;8.624;2023-07-08T00:45:43;7.70;;;6.00;;
51010;SDS011;37038;50.182;8.624;2023-07-08T00:48:49;7.45;;;6.68;;
51010;SDS011;37038;50.182;8.624;2023-07-08T00:51:39;10.93;;;6.60;;
51010;SDS011;37038;50.182;8.624;2023-07-08T00:54:27;7.63;;;6.15;;
51010;SDS011;37038;50.182;8.624;2023-07-08T00:57:15;11.70;;;6.68;;
51010;SDS011;37038;50.182;8.624;2023-07-08T01:00:04;9.88;;;6.45;;
51010;SDS011;37038;50.182;8.624;2023-07-08T01:02:56;8.10;;;6.50;;
51010;SDS011;37038;50.182;8.624;2023-07-08T01:05:44;11.40;;;6.85;;
51010;SDS011;37038;50.182;8.624;2023-07-08T01:08:33;10.25;;;7.05;;
51010;SDS011;37038;50.182;8.624;2023-07-08T01:11:21;7.10;;;6.40;;
51010;SDS011;37038;50.182;8.624;2023-07-08T01:14:10;8.57;;;6.55;;
51010;SDS011;37038;50.182;8.624;2023-07-08T01:17:00;10.50;;;6.57;;
51010;SDS011;37038;50.182;8.624;2023-07-08T01:19:49;9.13;;;6.68;;
51010;SDS011;37038;50.182;8.624;2023-07-08T01:22:41;11.07;;;6.82;;
51010;SDS011;37038;50.182;8.624;2023-07-08T01:25:30;10.63;;;6.35;;
51010;SDS011;37038;50.182;8.624;2023-07-08T01:28:19;7.93;;;6.57;;
51010;SDS011;37038;50.182;8.624;2023-07-08T01:31:08;8.77;;;6.70;;
51010;SDS011;37038;50.182;8.624;2023-07-08T01:33:57;10.55;;;7.20;;
51010;SDS011;37038;50.182;8.624;2023-07-08T01:36:49;7.78;;;6.97;;
51010;SDS011;37038;50.182;8.624;2023-07-08T01:39:40;7.63;;;6.40;;
51010;SDS011;37038;50.182;8.624;2023-07-08T01:42:29;8.00;;;6.00;;
51010;SDS011;37038;50.182;8.624;2023-07-08T01:45:21;9.25;;;6.63;;
51010;SDS011;37038;50.182;8.624;2023-07-08T01:48:13;9.32;;;7.20;;
51010;SDS011;37038;50.182;8.624;2023-07-08T01:51:05;9.70;;;6.28;;
51010;SDS011;37038;50.182;8.624;2023-07-08T01:53:55;7.95;;;6.97;;
51010;SDS011;37038;50.182;8.624;2023-07-08T01:56:43;9.30;;;6.35;;
51010;SDS011;37038;50.182;8.624;2023-07-08T01:59:30;8.50;;;6.60;;
51010;SDS011;37038;50.182;8.624;2023-07-08T02:02:18;8.57;;;6.88;;
51010;SDS011;37038;50.182;8.624;2023-07-08T02:05:07;11.38;;;7.03;;
51010;SDS011;37038;50.182;8.624;2023-07-08T02:07:56;8.02;;;6.57;;
51010;SDS011;37038;50.182;8.624;2023-07-08T02:10:44;7.85;;;6.72;;
51010;SDS011;37038;50.182;8.624;2023-07-08T02:13:36;9.20;;;6.75;;
51010;SDS011;37038;50.182;8.624;2023-07-08T02:16:23;7.72;;;6.93;;
51010;SDS011;37038;50.182;8.624;2023-07-08T02:19:11;9.68;;;7.00;;
51010;SDS011;37038;50.182;8.624;2023-07-08T02:21:59;7.65;;;6.70;;
51010;SDS011;37038;50.182;8.624;2023-07-08T02:24:47;9.23;;;6.95;;
51010;SDS011;37038;50.182;8.624;2023-07-08T02:27:36;11.15;;;7.43;;
51010;SDS011;37038;50.182;8.624;2023-07-08T02:30:24;9.38;;;6.72;;
51010;SDS011;37038;50.182;8.624;2023-07-08T02:33:12;12.52;;;6.78;;
51010;SDS011;37038;50.182;8.624;2023-07-08T02:36:01;10.30;;;6.97;;
51010;SDS011;37038;50.182;8.624;2023-07-08T02:38:49;8.85;;;6.72;;
51010;SDS011;37038;50.182;8.624;2023-07-08T02:41:37;8.70;;;6.68;;
51010;SDS011;37038;50.182;8.624;2023-07-08T02:44:25;9.23;;;7.03;;
51010;SDS011;37038;50.182;8.624;2023-07-08T02:47:13;12.13;;;7.40;;
51010;SDS011;37038;50.182;8.624;2023-07-08T02:50:01;8.60;;;7.25;;
51010;SDS011;37038;50.182;8.624;2023-07-08T02:52:49;11.52;;;7.40;;
51010;SDS011;37038;50.182;8.624;2023-07-08T02:55:37;9.57;;;6.97;;
51010;SDS011;37038;50.182;8.624;2023-07-08T02:58:25;10.70;;;7.38;;
51010;SDS011;37038;50.182;8.624;2023-07-08T03:01:13;8.93;;;6.95;;
51010;SDS011;37038;50.182;8.624;2023-07-08T03:04:04;11.65;;;7.70;;
51010;SDS011;37038;50.182;8.624;2023-07-08T03:06:53;10.32;;;8.23;;
51010;SDS011;37038;50.182;8.624;2023-07-08T03:09:41;9.43;;;7.93;;
51010;SDS011;37038;50.182;8.624;2023-07-08T03:12:28;10.15;;;7.85;;
51010;SDS011;37038;50.182;8.624;2023-07-08T03:15:16;11.18;;;8.45;;
51010;SDS011;37038;50.182;8.624;2023-07-08T03:18:04;11.95;;;8.05;;
51010;SDS011;37038;50.182;8.624;2023-07-08T03:20:53;10.00;;;8.05;;
51010;SDS011;37038;50.182;8.624;2023-07-08T03:23:43;14.05;;;9.07;;
51010;SDS011;37038;50.182;8.624;2023-07-08T03:26:31;11.20;;;8.15;;
51010;SDS011;37038;50.182;8.624;2023-07-08T03:29:21;12.60;;;7.90;;
51010;SDS011;37038;50.182;8.624;2023-07-08T03:32:11;10.02;;;8.18;;
51010;SDS011;37038;50.182;8.624;2023-07-08T03:34:59;9.32;;;7.32;;
51010;SDS011;37038;50.182;8.624;2023-07-08T03:37:48;10.73;;;7.63;;
51010;SDS011;37038;50.182;8.624;2023-07-08T03:40:36;11.85;;;8.15;;
51010;SDS011;37038;50.182;8.624;2023-07-08T03:43:24;9.35;;;7.68;;
51010;SDS011;37038;50.182;8.624;2023-07-08T03:46:11;10.30;;;8.23;;
51010;SDS011;37038;50.182;8.624;2023-07-08T03:49:01;10.98;;;7.60;;
51010;SDS011;37038;50.182;8.624;2023-07-08T03:51:49;11.40;;;7.72;;
51010;SDS011;37038;50.182;8.624;2023-07-08T03:54:40;9.77;;;7.32;;
51010;SDS011;37038;50.182;8.624;2023-07-08T03:57:28;8.90;;;7.78;;
51010;SDS011;37038;50.182;8.624;2023-07-08T04:00:16;10.07;;;8.48;;
51010;SDS011;37038;50.182;8.624;2023-07-08T04:03:04;12.48;;;8.60;;
51010;SDS011;37038;50.182;8.624;2023-07-08T04:05:51;11.40;;;8.60;;
51010;SDS011;37038;50.182;8.624;2023-07-08T04:08:39;14.90;;;8.52;;
51010;SDS011;37038;50.182;8.624;2023-07-08T04:11:27;10.68;;;7.90;;
51010;SDS011;37038;50.182;8.624;2023-07-08T04:14:15;11.07;;;7.70;;
51010;SDS011;37038;50.182;8.624;2023-07-08T04:17:03;9.35;;;7.30;;
51010;SDS011;37038;50.182;8.624;2023-07-08T04:19:50;10.60;;;8.32;;
51010;SDS011;37038;50.182;8.624;2023-07-08T04:22:38;10.50;;;8.50;;
51010;SDS011;37038;50.182;8.624;2023-07-08T04:25:26;24.17;;;8.88;;
51010;SDS011;37038;50.182;8.624;2023-07-08T04:28:15;12.65;;;8.63;;
51010;SDS011;37038;50.182;8.624;2023-07-08T04:31:03;11.40;;;8.32;;
51010;SDS011;37038;50.182;8.624;2023-07-08T04:33:51;10.93;;;7.75;;
51010;SDS011;37038;50.182;8.624;2023-07-08T04:36:40;9.35;;;7.70;;
51010;SDS011;37038;50.182;8.624;2023-07-08T04:39:29;12.88;;;8.52;;
51010;SDS011;37038;50.182;8.624;2023-07-08T04:42:24;12.25;;;7.45;;
51010;SDS011;37038;50.182;8.624;2023-07-08T04:45:11;11.50;;;8.18;;
51010;SDS011;37038;50.182;8.624;2023-07-08T04:47:59;9.43;;;7.95;;
51010;SDS011;37038;50.182;8.624;2023-07-08T04:50:49;8.65;;;7.28;;
51010;SDS011;37038;50.182;8.624;2023-07-08T04:53:37;10.05;;;7.57;;
51010;SDS011;37038;50.182;8.624;2023-07-08T04:56:34;10.55;;;8.45;;
51010;SDS011;37038;50.182;8.624;2023-07-08T04:59:25;8.85;;;7.40;;
51010;SDS011;37038;50.182;8.624;2023-07-08T05:02:13;9.93;;;7.07;;
51010;SDS011;37038;50.182;8.624;2023-07-08T05:05:02;10.68;;;7.57;;
51010;SDS011;37038;50.182;8.624;2023-07-08T05:07:52;14.90;;;7.75;;
51010;SDS011;37038;50.182;8.624;2023-07-08T05:10:41;10.20;;;7.97;;
51010;SDS011;37038;50.182;8.624;2023-07-08T05:13:29;9.25;;;7.32;;
51010;SDS011;37038;50.182;8.624;2023-07-08T05:16:20;9.30;;;6.85;;
51010;SDS011;37038;50.182;8.624;2023-07-08T05:19:11;12.27;;;7.30;;
51010;SDS011;37038;50.182;8.624;2023-07-08T05:22:02;8.77;;;7.00;;
51010;SDS011;37038;50.182;8.624;2023-07-08T05:24:51;9.10;;;6.18;;
51010;SDS011;37038;50.182;8.624;2023-07-08T05:27:43;8.68;;;6.95;;
51010;SDS011;37038;50.182;8.624;2023-07-08T05:30:32;16.73;;;7.25;;
51010;SDS011;37038;50.182;8.624;2023-07-08T05:33:22;8.18;;;6.38;;
51010;SDS011;37038;50.182;8.624;2023-07-08T05:36:13;7.50;;;6.63;;
51010;SDS011;37038;50.182;8.624;2023-07-08T05:39:03;10.60;;;7.15;;
51010;SDS011;37038;50.182;8.624;2023-07-08T05:41:54;8.80;;;6.45;;
51010;SDS011;37038;50.182;8.624;2023-07-08T05:44:44;9.20;;;6.60;;
51010;SDS011;37038;50.182;8.624;2023-07-08T05:47:34;9.02;;;6.65;;
51010;SDS011;37038;50.182;8.624;2023-07-08T05:50:25;6.75;;;5.82;;
51010;SDS011;37038;50.182;8.624;2023-07-08T05:53:17;10.95;;;6.38;;
51010;SDS011;37038;50.182;8.624;2023-07-08T05:56:08;9.15;;;6.63;;
51010;SDS011;37038;50.182;8.624;2023-07-08T05:58:58;7.00;;;6.30;;
51010;SDS011;37038;50.182;8.624;2023-07-08T06:01:49;7.38;;;6.18;;
51010;SDS011;37038;50.182;8.624;2023-07-08T06:04:40;7.85;;;6.75;;
51010;SDS011;37038;50.182;8.624;2023-07-08T06:07:32;10.43;;;6.90;;
51010;SDS011;37038;50.182;8.624;2023-07-08T06:10:21;9.45;;;6.63;;
51010;SDS011;37038;50.182;8.624;2023-07-08T06:13:11;8.63;;;6.38;;
51010;SDS011;37038;50.182;8.624;2023-07-08T06:16:01;8.63;;;7.13;;
51010;SDS011;37038;50.182;8.624;2023-07-08T06:18:52;9.00;;;5.63;;
51010;SDS011;37038;50.182;8.624;2023-07-08T06:21:44;8.13;;;6.00;;
51010;SDS011;37038;50.182;8.624;2023-07-08T06:24:35;8.25;;;6.28;;
51010;SDS011;37038;50.182;8.624;2023-07-08T06:27:25;8.95;;;6.00;;
51010;SDS011;37038;50.182;8.624;2023-07-08T06:30:15;11.63;;;6.70;;
51010;SDS011;37038;50.182;8.624;2023-07-08T06:33:05;7.28;;;5.85;;
51010;SDS011;37038;50.182;8.624;2023-07-08T06:35:55;7.88;;;5.55;;
51010;SDS011;37038;50.182;8.624;2023-07-08T06:38:47;8.43;;;5.72;;
51010;SDS011;37038;50.182;8.624;2023-07-08T06:41:39;9.88;;;5.75;;
51010;SDS011;37038;50.182;8.624;2023-07-08T06:44:29;10.25;;;5.18;;
51010;SDS011;37038;50.182;8.624;2023-07-08T06:47:21;8.13;;;6.00;;
51010;SDS011;37038;50.182;8.624;2023-07-08T06:50:13;8.95;;;6.07;;
51010;SDS011;37038;50.182;8.624;2023-07-08T06:53:05;7.45;;;5.97;;
51010;SDS011;37038;50.182;8.624;2023-07-08T06:55:57;6.65;;;5.95;;
51010;SDS011;37038;50.182;8.624;2023-07-08T06:58:52;6.00;;;5.30;;
51010;SDS011;37038;50.182;8.624;2023-07-08T07:01:44;8.13;;;5.55;;
51010;SDS011;37038;50.182;8.624;2023-07-08T07:04:34;9.48;;;5.80;;
51010;SDS011;37038;50.182;8.624;2023-07-08T07:07:25;9.88;;;5.80;;
51010;SDS011;37038;50.182;8.624;2023-07-08T07:10:20;7.63;;;5.78;;
51010;SDS011;37038;50.182;8.624;2023-07-08T07:13:10;7.60;;;5.55;;
51010;SDS011;37038;50.182;8.624;2023-07-08T07:16:00;8.93;;;5.45;;
51010;SDS011;37038;50.182;8.624;2023-07-08T07:18:50;7.00;;;6.30;;
51010;SDS011;37038;50.182;8.624;2023-07-08T07:21:44;7.55;;;5.75;;
51010;SDS011;37038;50.182;8.624;2023-07-08T07:24:34;7.73;;;5.70;;
51010;SDS011;37038;50.182;8.624;2023-07-08T07:27:25;7.57;;;5.93;;
51010;SDS011;37038;50.182;8.624;2023-07-08T07:30:15;9.02;;;6.18;;
51010;SDS011;37038;50.182;8.624;2023-07-08T07:33:06;10.10;;;6.53;;
51010;SDS011;37038;50.182;8.624;2023-07-08T07:35:55;9.00;;;6.03;;
51010;SDS011;37038;50.182;8.624;2023-07-08T07:38:48;8.38;;;6.95;;
51010;SDS011;37038;50.182;8.624;2023-07-08T07:41:38;10.80;;;6.88;;
51010;SDS011;37038;50.182;8.624;2023-07-08T07:44:27;10.85;;;7.82;;
51010;SDS011;37038;50.182;8.624;2023-07-08T07:47:15;9.98;;;7.00;;
51010;SDS011;37038;50.182;8.624;2023-07-08T07:50:06;10.40;;;7.45;;
51010;SDS011;37038;50.182;8.624;2023-07-08T07:52:58;10.20;;;7.35;;
51010;SDS011;37038;50.182;8.624;2023-07-08T07:55:55;14.90;;;7.97;;
51010;SDS011;37038;50.182;8.624;2023-07-08T07:58:50;9.10;;;7.32;;
51010;SDS011;37038;50.182;8.624;2023-07-08T08:01:40;10.48;;;7.97;;
51010;SDS011;37038;50.182;8.624;2023-07-08T08:04:31;9.82;;;8.30;;
51010;SDS011;37038;50.182;8.624;2023-07-08T08:07:26;11.98;;;8.00;;
51010;SDS011;37038;50.182;8.624;2023-07-08T08:10:17;11.57;;;7.60;;
51010;SDS011;37038;50.182;8.624;2023-07-08T08:13:08;15.27;;;7.72;;
51010;SDS011;37038;50.182;8.624;2023-07-08T08:15:57;10.15;;;7.22;;
51010;SDS011;37038;50.182;8.624;2023-07-08T08:18:49;10.57;;;8.23;;
51010;SDS011;37038;50.182;8.624;2023-07-08T08:21:39;8.50;;;6.38;;
51010;SDS011;37038;50.182;8.624;2023-07-08T08:24:31;9.20;;;6.95;;
51010;SDS011;37038;50.182;8.624;2023-07-08T08:27:24;9.55;;;6.63;;
51010;SDS011;37038;50.182;8.624;2023-07-08T08:30:16;8.23;;;5.78;;
51010;SDS011;37038;50.182;8.624;2023-07-08T08:33:05;8.35;;;5.90;;
51010;SDS011;37038;50.182;8.624;2023-07-08T08:35:56;8.90;;;6.05;;
51010;SDS011;37038;50.182;8.624;2023-07-08T08:38:48;5.67;;;5.17;;
51010;SDS011;37038;50.182;8.624;2023-07-08T08:41:56;12.43;;;5.63;;
51010;SDS011;37038;50.182;8.624;2023-07-08T08:44:55;7.60;;;5.53;;
51010;SDS011;37038;50.182;8.624;2023-07-08T08:47:50;6.47;;;5.80;;
51010;SDS011;37038;50.182;8.624;2023-07-08T08:50:51;8.50;;;5.47;;
51010;SDS011;37038;50.182;8.624;2023-07-08T08:53:55;6.28;;;5.45;;
51010;SDS011;37038;50.182;8.624;2023-07-08T08:56:48;5.95;;;5.32;;
51010;SDS011;37038;50.182;8.624;2023-07-08T08:59:56;7.18;;;6.03;;
51010;SDS011;37038;50.182;8.624;2023-07-08T09:05:49;7.40;;;5.97;;
51010;SDS011;37038;50.182;8.624;2023-07-08T09:08:44;10.10;;;6.40;;
51010;SDS011;37038;50.182;8.624;2023-07-08T09:11:42;7.32;;;6.60;;
51010;SDS011;37038;50.182;8.624;2023-07-08T09:14:38;6.68;;;5.97;;
51010;SDS011;37038;50.182;8.624;2023-07-08T09:17:31;7.35;;;6.10;;
51010;SDS011;37038;50.182;8.624;2023-07-08T09:20:30;8.40;;;6.30;;
51010;SDS011;37038;50.182;8.624;2023-07-08T09:23:29;10.63;;;6.32;;
51010;SDS011;37038;50.182;8.624;2023-07-08T09:26:23;7.18;;;6.25;;
51010;SDS011;37038;50.182;8.624;2023-07-08T09:29:17;9.23;;;6.03;;
51010;SDS011;37038;50.182;8.624;2023-07-08T09:32:23;6.93;;;6.13;;
51010;SDS011;37038;50.182;8.624;2023-07-08T09:35:27;7.18;;;5.78;;
51010;SDS011;37038;50.182;8.624;2023-07-08T09:38:35;9.48;;;6.63;;
51010;SDS011;37038;50.182;8.624;2023-07-08T09:41:34;11.77;;;7.13;;
51010;SDS011;37038;50.182;8.624;2023-07-08T09:44:44;11.73;;;6.75;;
51010;SDS011;37038;50.182;8.624;2023-07-08T09:47:35;7.65;;;6.82;;
51010;SDS011;37038;50.182;8.624;2023-07-08T09:50:31;7.38;;;6.68;;
51010;SDS011;37038;50.182;8.624;2023-07-08T09:53:28;11.32;;;7.25;;
51010;SDS011;37038;50.182;8.624;2023-07-08T09:56:18;10.05;;;6.93;;
51010;SDS011;37038;50.182;8.624;2023-07-08T09:59:12;10.63;;;7.22;;
51010;SDS011;37038;50.182;8.624;2023-07-08T10:05:38;7.65;;;6.85;;
51010;SDS011;37038;50.182;8.624;2023-07-08T10:08:37;8.07;;;7.28;;
51010;SDS011;37038;50.182;8.624;2023-07-08T10:11:35;9.68;;;6.88;;
51010;SDS011;37038;50.182;8.624;2023-07-08T10:14:36;8.13;;;6.88;;
51010;SDS011;37038;50.182;8.624;2023-07-08T10:17:41;7.40;;;6.43;;
51010;SDS011;37038;50.182;8.624;2023-07-08T10:20:41;9.05;;;6.95;;
51010;SDS011;37038;50.182;8.624;2023-07-08T10:24:10;8.13;;;7.32;;
51010;SDS011;37038;50.182;8.624;2023-07-08T10:31:09;9.25;;;7.40;;
51010;SDS011;37038;50.182;8.624;2023-07-08T10:41:30;9.45;;;8.45;;
51010;SDS011;37038;50.182;8.624;2023-07-08T11:02:06;10.20;;;7.53;;
51010;SDS011;37038;50.182;8.624;2023-07-08T11:05:50;8.45;;;7.10;;
51010;SDS011;37038;50.182;8.624;2023-07-08T11:08:44;10.25;;;7.22;;
51010;SDS011;37038;50.182;8.624;2023-07-08T11:11:51;8.00;;;7.25;;
51010;SDS011;37038;50.182;8.624;2023-07-08T11:18:25;9.70;;;7.10;;
51010;SDS011;37038;50.182;8.624;2023-07-08T11:21:49;9.80;;;6.80;;
51010;SDS011;37038;50.182;8.624;2023-07-08T11:24:45;7.93;;;7.13;;
51010;SDS011;37038;50.182;8.624;2023-07-08T11:30:23;9.65;;;6.80;;
51010;SDS011;37038;50.182;8.624;2023-07-08T11:33:26;8.43;;;6.32;;
51010;SDS011;37038;50.182;8.624;2023-07-08T11:36:23;10.52;;;7.55;;
51010;SDS011;37038;50.182;8.624;2023-07-08T11:39:46;9.68;;;6.85;;
51010;SDS011;37038;50.182;8.624;2023-07-08T11:43:12;7.32;;;6.50;;
51010;SDS011;37038;50.182;8.624;2023-07-08T11:46:12;8.18;;;6.95;;
51010;SDS011;37038;50.182;8.624;2023-07-08T11:49:18;8.93;;;6.65;;
51010;SDS011;37038;50.182;8.624;2023-07-08T11:53:02;8.65;;;6.90;;
51010;SDS011;37038;50.182;8.624;2023-07-08T11:59:11;9.50;;;7.20;;
51010;SDS011;37038;50.182;8.624;2023-07-08T12:02:18;9.23;;;7.20;;
51010;SDS011;37038;50.182;8.624;2023-07-08T12:05:13;11.95;;;7.20;;
51010;SDS011;37038;50.182;8.624;2023-07-08T12:08:32;10.00;;;7.28;;
51010;SDS011;37038;50.182;8.624;2023-07-08T12:11:31;8.02;;;6.95;;
51010;SDS011;37038;50.182;8.624;2023-07-08T12:14:37;7.82;;;6.93;;
51010;SDS011;37038;50.182;8.624;2023-07-08T12:18:18;9.15;;;6.70;;
51010;SDS011;37038;50.182;8.624;2023-07-08T12:21:13;10.27;;;7.20;;
51010;SDS011;37038;50.182;8.624;2023-07-08T12:24:04;7.88;;;5.75;;
51010;SDS011;37038;50.182;8.624;2023-07-08T12:26:56;12.63;;;6.90;;
51010;SDS011;37038;50.182;8.624;2023-07-08T12:29:53;8.20;;;6.57;;
51010;SDS011;37038;50.182;8.624;2023-07-08T12:32:44;9.77;;;6.88;;
51010;SDS011;37038;50.182;8.624;2023-07-08T12:35:33;7.35;;;6.40;;
51010;SDS011;37038;50.182;8.624;2023-07-08T12:41:27;7.55;;;6.78;;
51010;SDS011;37038;50.182;8.624;2023-07-08T12:44:25;10.18;;;6.78;;
51010;SDS011;37038;50.182;8.624;2023-07-08T12:47:32;7.80;;;6.68;;
51010;SDS011;37038;50.182;8.624;2023-07-08T12:50:21;7.43;;;6.70;;
51010;SDS011;37038;50.182;8.624;2023-07-08T12:53:12;7.88;;;6.90;;
51010;SDS011;37038;50.182;8.624;2023-07-08T12:56:04;7.55;;;6.70;;
51010;SDS011;37038;50.182;8.624;2023-07-08T12:58:58;8.00;;;7.20;;
51010;SDS011;37038;50.182;8.624;2023-07-08T13:01:48;8.45;;;6.65;;
51010;SDS011;37038;50.182;8.624;2023-07-08T13:04:40;8.38;;;7.07;;
51010;SDS011;37038;50.182;8.624;2023-07-08T13:07:38;9.68;;;7.00;;
51010;SDS011;37038;50.182;8.624;2023-07-08T13:10:33;9.57;;;6.87;;
51010;SDS011;37038;50.182;8.624;2023-07-08T13:13:30;8.43;;;6.40;;
51010;SDS011;37038;50.182;8.624;2023-07-08T13:16:24;8.25;;;7.13;;
51010;SDS011;37038;50.182;8.624;2023-07-08T13:19:20;9.40;;;7.45;;
51010;SDS011;37038;50.182;8.624;2023-07-08T13:22:17;8.20;;;6.50;;
51010;SDS011;37038;50.182;8.624;2023-07-08T13:25:17;7.60;;;6.90;;
51010;SDS011;37038;50.182;8.624;2023-07-08T13:31:18;11.07;;;7.18;;
51010;SDS011;37038;50.182;8.624;2023-07-08T13:34:24;12.93;;;7.07;;
51010;SDS011;37038;50.182;8.624;2023-07-08T13:37:14;8.70;;;6.93;;
51010;SDS011;37038;50.182;8.624;2023-07-08T13:40:16;8.95;;;6.88;;
51010;SDS011;37038;50.182;8.624;2023-07-08T13:43:06;7.43;;;6.50;;
51010;SDS011;37038;50.182;8.624;2023-07-08T13:46:00;8.07;;;5.95;;
51010;SDS011;37038;50.182;8.624;2023-07-08T13:49:01;8.10;;;6.20;;
51010;SDS011;37038;50.182;8.624;2023-07-08T13:52:33;8.00;;;5.85;;
51010;SDS011;37038;50.182;8.624;2023-07-08T13:55:28;7.30;;;6.18;;
51010;SDS011;37038;50.182;8.624;2023-07-08T13:58:25;9.35;;;5.85;;
51010;SDS011;37038;50.182;8.624;2023-07-08T14:01:41;10.02;;;6.32;;
51010;SDS011;37038;50.182;8.624;2023-07-08T14:04:40;10.30;;;6.30;;
51010;SDS011;37038;50.182;8.624;2023-07-08T14:07:32;6.88;;;5.45;;
51010;SDS011;37038;50.182;8.624;2023-07-08T14:10:22;9.02;;;6.38;;
51010;SDS011;37038;50.182;8.624;2023-07-08T14:13:14;8.18;;;5.78;;
51010;SDS011;37038;50.182;8.624;2023-07-08T14:16:21;6.57;;;5.43;;
51010;SDS011;37038;50.182;8.624;2023-07-08T14:19:17;7.18;;;5.47;;
51010;SDS011;37038;50.182;8.624;2023-07-08T14:22:29;8.40;;;5.93;;
51010;SDS011;37038;50.182;8.624;2023-07-08T14:25:24;12.48;;;5.70;;
51010;SDS011;37038;50.182;8.624;2023-07-08T14:28:16;7.20;;;5.47;;
51010;SDS011;37038;50.182;8.624;2023-07-08T14:31:10;11.25;;;5.65;;
51010;SDS011;37038;50.182;8.624;2023-07-08T14:34:09;8.60;;;6.20;;
51010;SDS011;37038;50.182;8.624;2023-07-08T14:37:12;6.70;;;5.80;;
51010;SDS011;37038;50.182;8.624;2023-07-08T14:43:30;7.20;;;5.93;;
51010;SDS011;37038;50.182;8.624;2023-07-08T14:46:21;7.57;;;5.50;;
51010;SDS011;37038;50.182;8.624;2023-07-08T14:49:18;7.57;;;5.45;;
51010;SDS011;37038;50.182;8.624;2023-07-08T14:52:12;8.18;;;5.55;;
51010;SDS011;37038;50.182;8.624;2023-07-08T14:55:12;7.72;;;5.30;;
51010;SDS011;37038;50.182;8.624;2023-07-08T14:58:04;7.28;;;5.55;;
51010;SDS011;37038;50.182;8.624;2023-07-08T15:00:55;11.35;;;5.30;;
51010;SDS011;37038;50.182;8.624;2023-07-08T15:03:47;10.13;;;5.43;;
51010;SDS011;37038;50.182;8.624;2023-07-08T15:06:36;6.28;;;4.85;;
51010;SDS011;37038;50.182;8.624;2023-07-08T15:09:27;8.77;;;5.25;;
51010;SDS011;37038;50.182;8.624;2023-07-08T15:12:16;6.60;;;5.13;;
51010;SDS011;37038;50.182;8.624;2023-07-08T15:15:13;6.80;;;5.53;;
51010;SDS011;37038;50.182;8.624;2023-07-08T15:18:16;8.07;;;5.70;;
51010;SDS011;37038;50.182;8.624;2023-07-08T15:24:22;8.68;;;5.38;;
51010;SDS011;37038;50.182;8.624;2023-07-08T15:27:17;6.82;;;5.43;;
51010;SDS011;37038;50.182;8.624;2023-07-08T15:30:20;9.05;;;5.25;;
51010;SDS011;37038;50.182;8.624;2023-07-08T15:33:18;9.10;;;5.47;;
51010;SDS011;37038;50.182;8.624;2023-07-08T15:36:19;9.02;;;4.65;;
51010;SDS011;37038;50.182;8.624;2023-07-08T15:39:25;8.45;;;5.32;;
51010;SDS011;37038;50.182;8.624;2023-07-08T15:42:35;10.65;;;5.60;;
51010;SDS011;37038;50.182;8.624;2023-07-08T15:45:31;5.77;;;5.17;;
51010;SDS011;37038;50.182;8.624;2023-07-08T15:48:27;9.25;;;5.30;;
51010;SDS011;37038;50.182;8.624;2023-07-08T15:51:20;8.85;;;5.60;;
51010;SDS011;37038;50.182;8.624;2023-07-08T15:54:22;7.07;;;5.30;;
51010;SDS011;37038;50.182;8.624;2023-07-08T15:57:28;8.65;;;5.85;;
51010;SDS011;37038;50.182;8.624;2023-07-08T16:00:19;7.20;;;5.88;;
51010;SDS011;37038;50.182;8.624;2023-07-08T16:03:25;6.70;;;5.50;;
51010;SDS011;37038;50.182;8.624;2023-07-08T16:06:20;9.68;;;5.72;;
51010;SDS011;37038;50.182;8.624;2023-07-08T16:09:12;7.30;;;4.93;;
51010;SDS011;37038;50.182;8.624;2023-07-08T16:12:04;8.07;;;5.82;;
51010;SDS011;37038;50.182;8.624;2023-07-08T16:14:58;6.13;;;5.38;;
51010;SDS011;37038;50.182;8.624;2023-07-08T16:17:52;7.93;;;6.20;;
51010;SDS011;37038;50.182;8.624;2023-07-08T16:20:44;7.88;;;5.40;;
51010;SDS011;37038;50.182;8.624;2023-07-08T16:23:38;6.68;;;5.20;;
51010;SDS011;37038;50.182;8.624;2023-07-08T16:26:28;8.68;;;5.20;;
51010;SDS011;37038;50.182;8.624;2023-07-08T16:29:23;11.18;;;5.65;;
51010;SDS011;37038;50.182;8.624;2023-07-08T16:32:17;7.45;;;5.20;;
51010;SDS011;37038;50.182;8.624;2023-07-08T16:35:14;8.98;;;5.40;;
51010;SDS011;37038;50.182;8.624;2023-07-08T16:38:09;7.45;;;5.28;;
51010;SDS011;37038;50.182;8.624;2023-07-08T16:41:04;7.70;;;5.15;;
51010;SDS011;37038;50.182;8.624;2023-07-08T16:44:03;9.13;;;5.47;;
51010;SDS011;37038;50.182;8.624;2023-07-08T16:47:07;12.80;;;5.63;;
51010;SDS011;37038;50.182;8.624;2023-07-08T16:49:57;9.55;;;5.82;;
51010;SDS011;37038;50.182;8.624;2023-07-08T16:52:55;6.73;;;5.33;;
51010;SDS011;37038;50.182;8.624;2023-07-08T16:55:46;6.70;;;4.97;;
51010;SDS011;37038;50.182;8.624;2023-07-08T16:58:38;6.63;;;4.85;;
51010;SDS011;37038;50.182;8.624;2023-07-08T17:01:30;10.50;;;5.50;;
51010;SDS011;37038;50.182;8.624;2023-07-08T17:04:23;11.43;;;6.80;;
51010;SDS011;37038;50.182;8.624;2023-07-08T17:07:14;7.80;;;5.70;;
51010;SDS011;37038;50.182;8.624;2023-07-08T17:10:08;7.95;;;5.50;;
51010;SDS011;37038;50.182;8.624;2023-07-08T17:13:02;8.77;;;5.20;;
51010;SDS011;37038;50.182;8.624;2023-07-08T17:15:54;8.48;;;5.38;;
51010;SDS011;37038;50.182;8.624;2023-07-08T17:18:44;13.57;;;5.65;;
51010;SDS011;37038;50.182;8.624;2023-07-08T17:21:37;5.75;;;4.95;;
51010;SDS011;37038;50.182;8.624;2023-07-08T17:24:30;5.60;;;4.90;;
51010;SDS011;37038;50.182;8.624;2023-07-08T17:27:20;9.57;;;6.00;;
51010;SDS011;37038;50.182;8.624;2023-07-08T17:30:12;8.93;;;5.03;;
51010;SDS011;37038;50.182;8.624;2023-07-08T17:33:04;7.97;;;5.15;;
51010;SDS011;37038;50.182;8.624;2023-07-08T17:36:13;6.53;;;5.35;;
51010;SDS011;37038;50.182;8.624;2023-07-08T17:39:05;8.15;;;5.70;;
51010;SDS011;37038;50.182;8.624;2023-07-08T17:42:29;12.02;;;5.47;;
51010;SDS011;37038;50.182;8.624;2023-07-08T17:45:13;10.18;;;5.45;;
51010;SDS011;37038;50.182;8.624;2023-07-08T17:48:03;9.85;;;5.38;;
51010;SDS011;37038;50.182;8.624;2023-07-08T17:51:07;9.63;;;5.68;;
51010;SDS011;37038;50.182;8.624;2023-07-08T17:53:58;10.38;;;5.65;;
51010;SDS011;37038;50.182;8.624;2023-07-08T17:56:46;8.57;;;5.57;;
51010;SDS011;37038;50.182;8.624;2023-07-08T17:59:36;9.10;;;6.32;;
51010;SDS011;37038;50.182;8.624;2023-07-08T18:02:25;7.35;;;6.05;;
51010;SDS011;37038;50.182;8.624;2023-07-08T18:05:17;8.65;;;5.35;;
51010;SDS011;37038;50.182;8.624;2023-07-08T18:08:11;8.02;;;6.13;;
51010;SDS011;37038;50.182;8.624;2023-07-08T18:10:59;11.63;;;6.53;;
51010;SDS011;37038;50.182;8.624;2023-07-08T18:13:49;9.27;;;6.32;;
51010;SDS011;37038;50.182;8.624;2023-07-08T18:16:40;11.60;;;5.70;;
51010;SDS011;37038;50.182;8.624;2023-07-08T18:19:33;9.07;;;6.15;;